Time;durP1;ratioP1;P1;durP2;ratioP2;P2;SDS_P1;SDS_P2;PMS_P1;PMS_P2;Temp;Humidity;BMP_temperature;BMP_pressure;BME280_temperature;BME280_humidity;BME280_pressure;Samples;Min_cycle;Max_cycle;Signal;HPM_P1;HPM_P2
2024/02/19 00:00:51;;;;;;;0.40;0.40;;;;;;;4.75;87.13;98038.94;4983098;28;20088;-61
2024/02/19 00:03:18;;;;;;;0.50;0.50;;;;;;;4.80;85.99;98047.06;4982837;28;20537;-61
2024/02/19 00:05:47;;;;;;;0.40;0.40;;;;;;;4.84;86.05;98039.84;4982623;28;20557;-62
2024/02/19 00:08:14;;;;;;;0.40;0.40;;;;;;;4.79;86.10;98032.53;4982753;28;20073;-65
2024/02/19 00:10:41;;;;;;;0.50;0.50;;;;;;;4.82;86.88;98044.84;4982678;28;21396;-62
2024/02/19 00:13:08;;;;;;;0.40;0.40;;;;;;;4.73;86.21;98031.03;4985123;28;20058;-61
2024/02/19 00:15:35;;;;;;;0.40;0.40;;;;;;;4.13;86.54;97944.56;4986360;28;20141;-62
2024/02/19 00:18:02;;;;;;;0.50;0.50;;;;;;;4.05;87.12;97954.34;4986468;28;20101;-61
2024/02/19 00:20:29;;;;;;;0.40;0.40;;;;;;;4.32;88.42;98042.06;4985909;28;20464;-62
2024/02/19 00:22:56;;;;;;;0.40;0.40;;;;;;;4.34;88.71;98039.84;4985126;28;20046;-64
2024/02/19 00:25:22;;;;;;;0.43;0.43;;;;;;;4.30;88.83;98043.50;4984711;28;20047;-61
2024/02/19 00:27:49;;;;;;;0.40;0.40;;;;;;;3.55;88.57;97910.72;4984760;28;20116;-63
2024/02/19 00:30:16;;;;;;;0.40;0.40;;;;;;;4.34;88.16;98044.50;4986228;28;20137;-63
2024/02/19 00:32:43;;;;;;;0.40;0.40;;;;;;;3.90;88.10;97965.63;4986671;28;20377;-64
2024/02/19 00:35:10;;;;;;;0.40;0.40;;;;;;;3.83;88.67;97965.22;4986749;28;20133;-64
2024/02/19 00:37:37;;;;;;;0.40;0.40;;;;;;;4.26;89.36;98031.50;4986862;28;20053;-61
2024/02/19 00:40:04;;;;;;;0.40;0.40;;;;;;;3.82;88.73;97949.06;4986339;28;20054;-61
2024/02/19 00:42:31;;;;;;;0.40;0.40;;;;;;;3.61;88.84;97948.66;4986052;28;20120;-60
2024/02/19 00:44:58;;;;;;;0.40;0.40;;;;;;;3.79;88.44;97939.53;4985959;28;20571;-60
2024/02/19 00:47:25;;;;;;;0.40;0.40;;;;;;;4.36;88.05;98045.81;4985739;28;20054;-60
2024/02/19 00:49:51;;;;;;;0.40;0.40;;;;;;;4.31;87.60;98040.44;4985318;28;20501;-61
2024/02/19 00:52:19;;;;;;;0.40;0.40;;;;;;;4.22;88.68;98036.78;4985487;28;20105;-62
2024/02/19 00:54:45;;;;;;;0.40;0.40;;;;;;;3.47;88.04;97942.38;4985382;28;20046;-59
2024/02/19 00:57:12;;;;;;;0.40;0.40;;;;;;;4.03;86.17;98027.84;4985976;28;20112;-60
2024/02/19 00:59:39;;;;;;;0.40;0.40;;;;;;;3.61;85.61;97986.19;4985373;28;20054;-62
2024/02/19 01:02:06;;;;;;;0.40;0.40;;;;;;;3.55;85.88;97977.28;4985696;28;20053;-60
2024/02/19 01:04:33;;;;;;;0.40;0.40;;;;;;;3.86;86.68;98044.06;4985703;28;20082;-61
2024/02/19 01:07:00;;;;;;;0.38;0.38;;;;;;;3.81;88.36;98035.94;4985678;28;20073;-61
2024/02/19 01:09:27;;;;;;;0.50;0.50;;;;;;;3.96;89.53;98032.94;4985794;28;20076;-61
2024/02/19 01:11:55;;;;;;;0.40;0.40;;;;;;;3.53;90.24;97957.59;4985902;28;20169;-61
2024/02/19 01:14:22;;;;;;;0.40;0.40;;;;;;;4.15;90.88;98025.41;4986037;28;20047;-62
2024/02/19 01:16:48;;;;;;;0.50;0.50;;;;;;;3.87;90.69;97949.75;4986020;28;20046;-60
2024/02/19 01:19:15;;;;;;;0.40;0.40;;;;;;;4.25;90.34;98019.72;4985441;28;20066;-60
2024/02/19 01:21:42;;;;;;;0.40;0.40;;;;;;;3.28;89.80;97856.75;4985308;28;20145;-59
2024/02/19 01:24:09;;;;;;;0.40;0.40;;;;;;;4.38;89.15;98035.34;4984475;28;20050;-63
2024/02/19 01:26:36;;;;;;;0.47;0.47;;;;;;;4.21;88.84;97996.78;4985033;28;20057;-63
2024/02/19 01:29:03;;;;;;;0.40;0.40;;;;;;;3.83;88.46;97950.69;4984685;28;20054;-61
2024/02/19 01:31:31;;;;;;;0.40;0.40;;;;;;;3.81;87.60;97929.06;4983439;28;20531;-61
2024/02/19 01:33:58;;;;;;;0.40;0.40;;;;;;;4.42;87.22;98008.94;4984799;28;20058;-63
2024/02/19 01:36:26;;;;;;;0.40;0.40;;;;;;;4.32;87.94;98008.31;4985062;28;20054;-63
2024/02/19 01:38:53;;;;;;;0.40;0.40;;;;;;;3.31;88.15;97823.28;4984575;28;20485;-61
2024/02/19 01:41:20;;;;;;;0.40;0.40;;;;;;;4.11;88.49;97942.13;4984726;28;20802;-63
2024/02/19 01:43:47;;;;;;;0.45;0.45;;;;;;;4.23;88.35;97961.63;4984999;28;20137;-63
2024/02/19 01:46:15;;;;;;;0.40;0.40;;;;;;;4.75;89.00;98000.53;4985612;28;20058;-63
2024/02/19 01:48:42;;;;;;;0.40;0.40;;;;;;;4.83;88.43;98008.03;4985820;28;20930;-61
2024/02/19 01:51:09;;;;;;;0.43;0.43;;;;;;;4.90;88.04;98002.94;4985360;28;20149;-63
2024/02/19 01:53:36;;;;;;;0.40;0.40;;;;;;;4.80;88.53;97982.03;4985102;28;20047;-61
2024/02/19 01:56:04;;;;;;;0.50;0.50;;;;;;;5.15;86.97;98000.38;4983755;28;20109;-64
2024/02/19 01:58:33;;;;;;;0.40;0.40;;;;;;;4.91;87.05;97955.13;4984797;28;20466;-61
2024/02/19 02:01:00;;;;;;;0.50;0.50;;;;;;;5.26;86.86;98006.44;4984613;28;20129;-63
2024/02/19 02:03:28;;;;;;;0.40;0.40;;;;;;;5.33;86.30;97995.81;4984328;28;20070;-64
2024/02/19 02:05:55;;;;;;;0.50;0.50;;;;;;;4.89;86.09;97998.53;4984599;28;20113;-62
2024/02/19 02:08:22;;;;;;;0.40;0.40;;;;;;;3.63;87.75;97853.31;4983107;28;20524;-61
2024/02/19 02:10:49;;;;;;;0.50;0.50;;;;;;;4.60;87.51;97994.25;4984722;28;20058;-61
2024/02/19 02:13:18;;;;;;;0.40;0.40;;;;;;;4.61;87.11;97995.91;4984296;28;20133;-62
2024/02/19 02:15:45;;;;;;;0.47;0.47;;;;;;;4.72;86.84;97995.66;4984616;28;20054;-61
2024/02/19 02:18:14;;;;;;;0.40;0.40;;;;;;;4.71;87.64;97994.03;4983811;28;20525;-62
2024/02/19 02:20:42;;;;;;;0.40;0.40;;;;;;;4.45;87.01;97931.53;4983950;28;20065;-61
2024/02/19 02:23:11;;;;;;;0.40;0.40;;;;;;;4.64;87.30;97950.56;4894806;28;20153;-64
2024/02/19 02:25:37;;;;;;;0.40;0.40;;;;;;;4.99;87.15;97995.56;4965298;28;20054;-62
2024/02/19 02:28:04;;;;;;;0.43;0.43;;;;;;;4.49;86.93;97909.75;4963301;28;20157;-62
2024/02/19 02:30:31;;;;;;;0.40;0.40;;;;;;;4.91;86.66;97971.59;4964378;28;20106;-63
2024/02/19 02:32:58;;;;;;;0.50;0.50;;;;;;;4.75;84.46;97923.69;4964547;28;20047;-60
2024/02/19 02:35:25;;;;;;;0.43;0.43;;;;;;;4.89;85.08;97990.31;4964000;28;20057;-62
2024/02/19 02:37:52;;;;;;;0.50;0.50;;;;;;;4.85;85.48;97979.16;4964624;28;20483;-60
2024/02/19 02:40:18;;;;;;;0.40;0.40;;;;;;;4.09;85.23;97850.38;4962662;28;20055;-62
2024/02/19 02:42:45;;;;;;;0.47;0.47;;;;;;;5.08;84.58;97985.44;4964439;28;20051;-64
2024/02/19 02:45:12;;;;;;;0.50;0.50;;;;;;;4.84;84.81;98015.16;4964243;28;20059;-60
2024/02/19 02:47:39;;;;;;;0.50;0.50;;;;;;;4.77;85.41;97998.28;4964266;28;20057;-60
2024/02/19 02:50:06;;;;;;;0.50;0.50;;;;;;;4.47;85.21;97929.25;4962770;28;20065;-61
2024/02/19 02:52:33;;;;;;;0.40;0.40;;;;;;;4.74;86.31;97993.41;4963917;28;20054;-63
2024/02/19 02:55:00;;;;;;;0.45;0.45;;;;;;;4.76;86.02;98002.94;4964109;28;20046;-62
2024/02/19 02:57:27;;;;;;;0.40;0.40;;;;;;;4.83;86.81;97997.03;4964275;28;20050;-61
2024/02/19 02:59:53;;;;;;;0.40;0.40;;;;;;;4.78;86.33;97994.41;4964501;28;20062;-63
2024/02/19 03:02:20;;;;;;;0.50;0.50;;;;;;;4.68;86.73;97968.84;4945873;28;20097;-60
2024/02/19 03:04:47;;;;;;;0.40;0.40;;;;;;;4.93;86.74;97994.06;4943095;29;20047;-60
2024/02/19 03:07:14;;;;;;;0.50;0.50;;;;;;;5.05;86.33;97997.06;4944621;29;20051;-60
2024/02/19 03:09:41;;;;;;;0.43;0.43;;;;;;;5.16;86.25;97998.44;4944362;28;20573;-61
2024/02/19 03:12:07;;;;;;;0.50;0.50;;;;;;;4.82;86.25;97924.06;4943384;29;20160;-61
2024/02/19 03:14:35;;;;;;;0.50;0.50;;;;;;;5.00;85.49;97953.25;4944331;29;20051;-60
2024/02/19 03:17:01;;;;;;;0.50;0.50;;;;;;;5.39;85.62;98000.84;4943148;29;20157;-62
2024/02/19 03:19:28;;;;;;;0.50;0.50;;;;;;;4.94;85.95;97940.78;4942778;29;20059;-61
2024/02/19 03:21:55;;;;;;;0.40;0.40;;;;;;;5.36;85.65;97989.72;4944728;28;20078;-60
2024/02/19 03:24:22;;;;;;;0.50;0.50;;;;;;;4.97;84.61;97918.19;4944480;28;20067;-62
2024/02/19 03:26:49;;;;;;;0.50;0.50;;;;;;;5.56;84.55;98000.16;4944684;29;20477;-62
2024/02/19 03:29:16;;;;;;;0.50;0.50;;;;;;;5.61;84.93;98006.31;4942923;29;20054;-61
2024/02/19 03:31:43;;;;;;;0.50;0.50;;;;;;;5.58;84.73;97998.72;4949057;28;21303;-61
2024/02/19 03:34:10;;;;;;;0.50;0.50;;;;;;;5.50;84.90;97995.94;4962592;28;20109;-62
2024/02/19 03:36:38;;;;;;;0.50;0.50;;;;;;;5.41;85.70;97984.88;4962856;28;20169;-61
2024/02/19 03:39:04;;;;;;;0.50;0.50;;;;;;;5.63;85.76;98001.34;4963679;28;20050;-61
2024/02/19 03:41:32;;;;;;;0.47;0.47;;;;;;;5.46;85.11;97951.78;4963459;28;20047;-62
2024/02/19 03:43:59;;;;;;;0.60;0.60;;;;;;;5.79;85.30;97993.47;4962051;28;20055;-61
2024/02/19 03:46:26;;;;;;;0.50;0.50;;;;;;;5.79;85.76;97996.22;4964748;28;20062;-61
2024/02/19 03:48:54;;;;;;;0.50;0.50;;;;;;;5.44;85.60;97955.94;4965632;28;20050;-63
2024/02/19 03:51:22;;;;;;;0.43;0.43;;;;;;;5.91;85.30;98008.28;4967602;28;20057;-61
2024/02/19 03:53:49;;;;;;;0.50;0.50;;;;;;;5.95;84.96;97989.22;4967317;28;20055;-63
2024/02/19 03:56:17;;;;;;;0.50;0.50;;;;;;;5.98;84.26;97986.66;4967065;28;20489;-63
2024/02/19 03:58:44;;;;;;;0.50;0.50;;;;;;;5.98;84.00;97991.34;4967264;28;20518;-61
2024/02/19 04:01:11;;;;;;;0.50;0.50;;;;;;;5.92;83.74;97987.13;4967258;28;20437;-64
2024/02/19 04:03:38;;;;;;;0.55;0.55;;;;;;;6.03;83.96;97993.94;4967124;28;20055;-61
2024/02/19 04:06:05;;;;;;;0.50;0.50;;;;;;;6.06;83.76;97987.81;4967328;28;20458;-62
2024/02/19 04:08:33;;;;;;;0.50;0.50;;;;;;;5.95;84.31;97970.81;4981452;28;20050;-63
2024/02/19 04:11:00;;;;;;;0.50;0.50;;;;;;;6.11;83.53;97993.19;4984740;28;20058;-63
2024/02/19 04:13:26;;;;;;;0.50;0.50;;;;;;;5.78;83.59;97958.88;4986459;28;20422;-61
2024/02/19 04:15:56;;;;;;;0.50;0.50;;;;;;;6.06;83.77;97993.31;4986341;28;20050;-61
2024/02/19 04:18:23;;;;;;;0.50;0.50;;;;;;;6.05;84.52;97988.94;4984896;28;20508;-63
2024/02/19 04:20:50;;;;;;;0.50;0.50;;;;;;;6.08;84.92;97991.06;4986483;28;20058;-63
2024/02/19 04:23:17;;;;;;;0.50;0.50;;;;;;;6.01;85.85;97991.53;4986583;28;20071;-63
2024/02/19 04:25:44;;;;;;;0.60;0.60;;;;;;;6.16;85.88;97993.03;4985889;28;20073;-64
2024/02/19 04:28:12;;;;;;;0.60;0.60;;;;;;;6.23;85.03;98003.56;4986255;28;20125;-62
2024/02/19 04:30:38;;;;;;;0.50;0.50;;;;;;;6.24;85.26;98000.50;4986680;28;20050;-62
2024/02/19 04:33:05;;;;;;;0.50;0.50;;;;;;;6.23;85.14;97985.13;4985341;28;20481;-62
2024/02/19 04:35:32;;;;;;;0.50;0.50;;;;;;;6.27;84.78;97988.03;4986891;28;20436;-61
2024/02/19 04:37:59;;;;;;;0.60;0.60;;;;;;;5.43;84.31;97855.44;4986221;28;20050;-64
2024/02/19 04:40:26;;;;;;;0.50;0.50;;;;;;;5.63;84.38;97910.63;4986409;28;20050;-60
2024/02/19 04:42:53;;;;;;;0.60;0.60;;;;;;;6.09;84.55;97965.16;4985928;28;20046;-60
2024/02/19 04:45:20;;;;;;;0.50;0.50;;;;;;;6.19;84.11;97981.41;4986063;28;20063;-62
2024/02/19 04:47:47;;;;;;;0.50;0.50;;;;;;;6.33;84.58;97984.81;4986366;28;20077;-63
2024/02/19 04:50:15;;;;;;;0.50;0.50;;;;;;;6.35;84.38;97990.00;4984196;28;20050;-63
2024/02/19 04:52:42;;;;;;;0.60;0.60;;;;;;;6.25;84.85;97977.34;4984212;28;20065;-63
2024/02/19 04:55:09;;;;;;;0.50;0.50;;;;;;;6.29;85.50;97969.28;4985691;28;20053;-61
2024/02/19 04:57:36;;;;;;;0.50;0.50;;;;;;;6.26;85.07;97987.22;4984986;28;20062;-62
2024/02/19 05:00:04;;;;;;;0.50;0.50;;;;;;;6.17;85.51;97972.63;4983863;28;20050;-63
2024/02/19 05:02:31;;;;;;;0.50;0.50;;;;;;;6.16;85.19;97971.03;4985889;28;20500;-62
2024/02/19 05:04:58;;;;;;;0.50;0.50;;;;;;;6.23;85.73;97965.06;4985574;28;20046;-60
2024/02/19 05:07:25;;;;;;;0.50;0.50;;;;;;;6.37;85.35;97999.56;4985403;28;20054;-62
2024/02/19 05:09:52;;;;;;;0.60;0.60;;;;;;;6.25;85.98;97969.09;4985920;28;20046;-62
2024/02/19 05:12:19;;;;;;;0.50;0.50;;;;;;;6.47;85.80;97993.75;4986054;28;20054;-62
2024/02/19 05:14:45;;;;;;;0.52;0.52;;;;;;;6.38;85.37;97968.19;4985301;28;20133;-60
2024/02/19 05:17:12;;;;;;;0.60;0.60;;;;;;;6.44;85.60;97999.91;4985197;28;20058;-61
2024/02/19 05:19:39;;;;;;;0.50;0.50;;;;;;;6.47;85.81;97999.25;4984744;28;20426;-62
2024/02/19 05:22:06;;;;;;;0.50;0.50;;;;;;;6.43;86.06;97990.03;4983701;28;20054;-60
2024/02/19 05:24:33;;;;;;;0.60;0.60;;;;;;;6.54;86.13;97983.09;4984707;28;20112;-62
2024/02/19 05:27:00;;;;;;;0.60;0.60;;;;;;;6.18;86.24;97966.81;4983458;28;20069;-63
2024/02/19 05:29:26;;;;;;;0.55;0.55;;;;;;;6.42;87.39;97993.13;4984337;28;20065;-63
2024/02/19 05:31:53;;;;;;;0.50;0.50;;;;;;;6.43;86.80;97990.03;4984399;28;20157;-61
2024/02/19 05:34:20;;;;;;;0.50;0.50;;;;;;;6.57;86.49;97993.47;4983076;28;20058;-60
2024/02/19 05:36:47;;;;;;;0.50;0.50;;;;;;;6.58;86.43;97999.75;4985316;28;20137;-61
2024/02/19 05:39:14;;;;;;;0.45;0.45;;;;;;;6.03;87.16;97925.19;4984610;28;20054;-60
2024/02/19 05:41:41;;;;;;;0.50;0.50;;;;;;;6.14;86.71;97940.28;4979828;28;20054;-60
2024/02/19 05:44:09;;;;;;;0.60;0.60;;;;;;;6.56;87.57;98002.03;4984817;28;20058;-60
2024/02/19 05:46:36;;;;;;;0.60;0.60;;;;;;;6.56;88.07;98000.09;4982618;28;20050;-62
2024/02/19 05:49:03;;;;;;;0.60;0.60;;;;;;;5.78;87.43;97881.91;4984204;28;20414;-62
2024/02/19 05:51:30;;;;;;;0.50;0.50;;;;;;;6.39;87.46;97964.28;4982773;28;20058;-62
2024/02/19 05:53:57;;;;;;;0.57;0.57;;;;;;;6.52;87.08;97988.09;4983441;28;20068;-63
2024/02/19 05:56:26;;;;;;;0.55;0.55;;;;;;;6.50;87.60;98004.13;4983751;28;20137;-59
2024/02/19 05:58:53;;;;;;;0.60;0.60;;;;;;;6.58;87.59;98000.59;4982697;28;20108;-62
2024/02/19 06:01:20;;;;;;;0.52;0.52;;;;;;;6.47;87.48;97982.75;4983009;28;20058;-62
2024/02/19 06:03:47;;;;;;;0.50;0.50;;;;;;;6.65;86.97;98003.69;4981472;28;20709;-62
2024/02/19 06:06:14;;;;;;;0.50;0.50;;;;;;;6.62;87.51;98000.75;4982975;28;20065;-62
2024/02/19 06:08:41;;;;;;;0.50;0.50;;;;;;;6.51;88.11;97989.25;4984060;28;20419;-62
2024/02/19 06:11:07;;;;;;;0.50;0.50;;;;;;;6.70;87.51;97999.97;4983205;28;20054;-60
2024/02/19 06:13:34;;;;;;;0.50;0.50;;;;;;;6.55;88.04;97990.22;4984186;28;20566;-62
2024/02/19 06:16:01;;;;;;;0.50;0.50;;;;;;;6.39;88.17;97969.78;4982456;28;20065;-64
2024/02/19 06:18:28;;;;;;;0.50;0.50;;;;;;;6.02;87.85;97888.63;4984085;28;20511;-61
2024/02/19 06:20:55;;;;;;;0.50;0.50;;;;;;;6.16;88.44;97913.28;4983825;28;20050;-63
2024/02/19 06:23:23;;;;;;;0.60;0.60;;;;;;;5.93;87.84;97851.25;4983950;28;20042;-63
2024/02/19 06:25:49;;;;;;;0.60;0.60;;;;;;;6.88;87.90;98002.41;4982462;28;20054;-66
2024/02/19 06:28:16;;;;;;;0.60;0.60;;;;;;;6.95;87.11;98012.94;4984220;28;20062;-61
2024/02/19 06:30:43;;;;;;;0.50;0.50;;;;;;;6.93;86.96;97999.50;4983619;28;20172;-63
2024/02/19 06:33:10;;;;;;;0.57;0.57;;;;;;;6.93;86.78;98002.25;4984005;28;20133;-64
2024/02/19 06:35:37;;;;;;;0.50;0.50;;;;;;;6.96;86.83;98001.59;4984318;28;20069;-64
2024/02/19 06:38:04;;;;;;;0.60;0.60;;;;;;;7.07;86.24;98013.91;4982417;28;20061;-64
2024/02/19 06:40:30;;;;;;;0.60;0.60;;;;;;;6.93;86.95;97984.91;4983713;28;20054;-61
2024/02/19 06:42:57;;;;;;;0.60;0.60;;;;;;;6.75;86.68;97962.06;4984236;28;20047;-62
2024/02/19 06:45:24;;;;;;;0.60;0.60;;;;;;;6.89;87.89;98011.47;4983840;28;20104;-64
2024/02/19 06:47:51;;;;;;;0.60;0.60;;;;;;;6.76;88.03;98006.94;4982320;28;20126;-63
2024/02/19 06:50:18;;;;;;;0.52;0.52;;;;;;;6.79;88.60;98018.13;4983273;28;20058;-63
2024/02/19 06:52:47;;;;;;;0.47;0.47;;;;;;;6.88;87.89;98016.19;4983068;28;20050;-63
2024/02/19 06:55:15;;;;;;;0.60;0.60;;;;;;;6.98;87.08;98004.84;4983121;28;20054;-63
2024/02/19 06:57:42;;;;;;;0.60;0.60;;;;;;;7.10;86.81;98005.00;4982925;28;20090;-62
2024/02/19 07:00:10;;;;;;;0.60;0.60;;;;;;;6.50;86.71;97916.06;4981407;28;20073;-63
2024/02/19 07:02:38;;;;;;;0.60;0.60;;;;;;;7.04;87.38;98080.69;4982005;28;20143;-66
2024/02/19 07:05:06;;;;;;;0.57;0.57;;;;;;;7.05;86.94;97999.66;4982977;28;20069;-63
2024/02/19 07:07:35;;;;;;;0.50;0.50;;;;;;;6.88;86.82;97966.59;4982623;28;20112;-65
2024/02/19 07:10:03;;;;;;;0.50;0.50;;;;;;;7.21;86.54;98000.78;4981067;28;20567;-65
2024/02/19 07:12:30;;;;;;;0.60;0.60;;;;;;;7.19;87.06;97997.53;4980983;28;20077;-63
2024/02/19 07:14:57;;;;;;;0.60;0.60;;;;;;;7.24;87.24;98002.88;4983083;28;20050;-67
2024/02/19 07:17:25;;;;;;;0.60;0.60;;;;;;;7.16;87.31;97995.44;4981154;28;20057;-65
2024/02/19 07:19:52;;;;;;;0.60;0.60;;;;;;;6.90;87.65;97958.84;4980981;28;20587;-63
2024/02/19 07:22:20;;;;;;;0.60;0.60;;;;;;;6.88;88.03;97961.09;4982450;28;20607;-60
2024/02/19 07:24:46;;;;;;;0.60;0.60;;;;;;;7.25;88.20;97996.25;4979586;28;20580;-65
2024/02/19 07:27:14;;;;;;;0.60;0.60;;;;;;;7.16;87.55;97969.84;4980309;28;20058;-64
2024/02/19 07:29:42;;;;;;;0.60;0.60;;;;;;;7.27;88.22;98013.25;4982196;28;20056;-68
2024/02/19 07:32:09;;;;;;;0.60;0.60;;;;;;;7.25;88.59;97998.19;4969504;28;20513;-64
2024/02/19 07:34:36;;;;;;;0.60;0.60;;;;;;;7.09;88.64;97956.56;4966475;28;20050;-67
2024/02/19 07:37:05;;;;;;;0.60;0.60;;;;;;;7.32;88.21;97999.31;4976869;28;20050;-62
2024/02/19 07:39:32;;;;;;;0.63;0.63;;;;;;;7.25;88.70;97999.00;4963127;28;20078;-65
2024/02/19 07:41:58;;;;;;;0.60;0.60;;;;;;;5.22;88.80;97664.88;4967403;28;20070;-67
2024/02/19 07:44:25;;;;;;;0.60;0.60;;;;;;;6.69;89.04;97901.97;4979051;28;20057;-67
2024/02/19 07:46:52;;;;;;;0.60;0.60;;;;;;;7.35;89.41;98008.91;4991291;28;20058;-69
2024/02/19 07:49:19;;;;;;;0.60;0.60;;;;;;;7.42;89.32;97999.00;4976292;28;20129;-62
2024/02/19 07:51:46;;;;;;;0.60;0.60;;;;;;;6.95;89.79;97916.53;4971471;28;20132;-67
2024/02/19 07:54:12;;;;;;;0.60;0.60;;;;;;;6.01;89.73;97765.22;4965938;28;20062;-71
2024/02/19 07:56:39;;;;;;;0.55;0.55;;;;;;;7.34;91.18;97983.28;4970426;28;20046;-63
2024/02/19 07:59:06;;;;;;;0.60;0.60;;;;;;;7.40;91.19;97995.75;4978680;28;20191;-61
2024/02/19 08:01:33;;;;;;;0.60;0.60;;;;;;;7.29;91.48;97983.44;4972669;28;20046;-67
2024/02/19 08:04:00;;;;;;;0.60;0.60;;;;;;;7.33;92.57;97989.91;4972102;28;20069;-67
2024/02/19 08:06:28;;;;;;;0.60;0.60;;;;;;;7.32;92.20;97988.28;4984259;28;20054;-63
2024/02/19 08:08:55;;;;;;;0.60;0.60;;;;;;;7.03;93.98;97955.13;4967753;28;20130;-62
2024/02/19 08:11:23;;;;;;;0.57;0.57;;;;;;;7.27;94.35;97960.91;4971813;28;20054;-63
2024/02/19 08:13:50;;;;;;;0.60;0.60;;;;;;;7.22;94.70;97963.81;4981579;28;20087;-68
2024/02/19 08:16:17;;;;;;;0.60;0.60;;;;;;;7.26;94.59;97962.03;4973486;28;20162;-61
2024/02/19 08:18:44;;;;;;;0.60;0.60;;;;;;;6.79;94.97;97894.22;4979016;28;20064;-64
2024/02/19 08:21:11;;;;;;;0.60;0.60;;;;;;;7.32;95.12;97977.25;4977698;28;20050;-62
2024/02/19 08:23:38;;;;;;;0.60;0.60;;;;;;;7.29;95.11;97977.91;4985364;28;20050;-68
2024/02/19 08:26:05;;;;;;;0.60;0.60;;;;;;;6.54;96.20;97878.50;4978119;28;20046;-66
2024/02/19 08:28:32;;;;;;;0.57;0.57;;;;;;;7.16;97.44;97978.91;4977080;28;20270;-65
2024/02/19 08:30:58;;;;;;;0.60;0.60;;;;;;;7.16;97.68;97978.91;4974849;28;20489;-74
2024/02/19 08:33:25;;;;;;;0.60;0.60;;;;;;;6.83;98.38;97941.97;4979955;28;20054;-68
2024/02/19 08:35:52;;;;;;;0.60;0.60;;;;;;;7.23;98.54;97978.41;4981964;28;20050;-66
2024/02/19 08:38:19;;;;;;;0.60;0.60;;;;;;;7.30;98.83;97976.78;4981822;28;20531;-69
2024/02/19 08:40:46;;;;;;;0.60;0.60;;;;;;;7.36;98.79;97982.94;4980015;28;20079;-69
2024/02/19 08:43:13;;;;;;;0.60;0.60;;;;;;;6.81;98.74;97902.16;4971816;28;20062;-61
2024/02/19 08:45:40;;;;;;;0.60;0.60;;;;;;;6.52;99.32;97880.78;4979964;28;20122;-72
2024/02/19 08:48:07;;;;;;;0.60;0.60;;;;;;;7.10;99.74;97951.84;4979645;28;20054;-61
2024/02/19 08:50:35;;;;;;;0.55;0.55;;;;;;;6.36;100.00;97868.63;4990810;28;20132;-60
2024/02/19 08:53:02;;;;;;;0.60;0.60;;;;;;;6.83;100.00;97964.00;4980914;28;20497;-64
2024/02/19 08:55:30;;;;;;;0.60;0.60;;;;;;;6.50;100.00;97943.56;4978672;28;20061;-64
2024/02/19 08:57:58;;;;;;;0.52;0.52;;;;;;;5.93;100.00;97818.25;4978061;28;20066;-63
2024/02/19 09:00:25;;;;;;;0.60;0.60;;;;;;;6.92;100.00;97950.25;4975957;28;20513;-66
2024/02/19 09:02:52;;;;;;;0.60;0.60;;;;;;;7.22;100.00;97977.59;4967405;28;20053;-66
2024/02/19 09:05:19;;;;;;;0.60;0.60;;;;;;;7.31;100.00;97981.16;4976325;28;20054;-64
2024/02/19 09:07:47;;;;;;;0.70;0.70;;;;;;;7.39;100.00;97976.78;4971339;28;20054;-61
2024/02/19 09:10:14;;;;;;;0.60;0.60;;;;;;;7.42;100.00;97973.34;4982846;28;20137;-67
2024/02/19 09:12:41;;;;;;;0.60;0.60;;;;;;;6.57;100.00;97899.88;4982015;28;20054;-67
2024/02/19 09:15:09;;;;;;;0.60;0.60;;;;;;;6.99;100.00;97978.91;4984816;28;20050;-61
2024/02/19 09:17:35;;;;;;;0.50;0.50;;;;;;;7.23;100.00;97978.41;4982533;28;20089;-72
2024/02/19 09:20:03;;;;;;;0.60;0.60;;;;;;;6.92;100.00;97907.00;4979891;28;20129;-71
2024/02/19 09:22:30;;;;;;;0.60;0.60;;;;;;;7.15;100.00;97949.75;4980031;28;20054;-70
2024/02/19 09:24:58;;;;;;;0.70;0.70;;;;;;;6.96;100.00;97905.19;4966252;28;20050;-62
2024/02/19 09:27:24;;;;;;;0.60;0.60;;;;;;;7.46;100.00;97980.66;4988803;28;20042;-59
2024/02/19 09:29:52;;;;;;;0.60;0.60;;;;;;;7.15;100.00;97932.38;4981059;28;20046;-60
2024/02/19 09:32:19;;;;;;;0.60;0.60;;;;;;;7.64;100.00;97979.47;4982845;28;20082;-70
2024/02/19 09:34:46;;;;;;;0.60;0.60;;;;;;;7.15;99.74;97889.13;4967149;28;20055;-69
2024/02/19 09:37:13;;;;;;;0.60;0.60;;;;;;;7.59;100.00;97976.88;4975942;28;20058;-65
2024/02/19 09:39:40;;;;;;;0.60;0.60;;;;;;;7.45;100.00;97975.47;4982881;28;20245;-59
2024/02/19 09:42:08;;;;;;;0.60;0.60;;;;;;;7.64;100.00;97968.44;4982072;28;20058;-58
2024/02/19 09:44:36;;;;;;;0.60;0.60;;;;;;;7.27;100.00;97892.00;4982286;28;20054;-70
2024/02/19 09:47:03;;;;;;;0.70;0.70;;;;;;;7.83;100.00;97970.00;4976493;28;20050;-62
2024/02/19 09:49:31;;;;;;;0.70;0.70;;;;;;;7.98;100.00;97970.28;4950697;28;20085;-70
2024/02/19 09:52:02;;;;;;;0.60;0.60;;;;;;;7.38;100.00;97871.22;4973641;28;20478;-62
2024/02/19 09:54:29;;;;;;;0.60;0.60;;;;;;;8.18;100.00;97982.53;4970100;28;20433;-64
2024/02/19 09:56:57;;;;;;;0.70;0.70;;;;;;;7.45;100.00;97849.47;4983454;28;20050;-69
2024/02/19 09:59:24;;;;;;;0.70;0.70;;;;;;;8.25;100.00;97938.69;4985536;28;20069;-59
2024/02/19 10:01:51;;;;;;;0.70;0.70;;;;;;;8.46;100.00;97950.56;4975074;28;20054;-64
2024/02/19 10:04:20;;;;;;;0.80;0.80;;;;;;;6.51;97.40;97614.16;4977167;28;20057;-71
2024/02/19 10:06:48;;;;;;;0.70;0.70;;;;;;;8.46;97.71;97912.72;4981515;28;20050;-61
2024/02/19 10:09:15;;;;;;;0.70;0.70;;;;;;;8.78;97.61;97945.16;4969294;28;20149;-69
2024/02/19 10:11:42;;;;;;;0.80;0.80;;;;;;;8.94;95.38;97937.06;4974953;28;20491;-59
2024/02/19 10:14:10;;;;;;;0.70;0.70;;;;;;;8.83;93.58;97916.50;4975461;28;20557;-66
2024/02/19 10:16:37;;;;;;;0.77;0.77;;;;;;;8.78;93.17;97942.41;4983477;28;20513;-64
2024/02/19 10:19:05;;;;;;;0.70;0.70;;;;;;;8.79;93.39;97926.59;4983045;28;20154;-66
2024/02/19 10:21:33;;;;;;;0.70;0.70;;;;;;;8.58;93.15;97871.38;4983186;28;20053;-62
2024/02/19 10:24:00;;;;;;;0.77;0.77;;;;;;;8.93;93.37;97927.16;4983759;28;20584;-62
2024/02/19 10:26:27;;;;;;;0.73;0.73;;;;;;;8.98;90.63;97924.16;4972502;28;20101;-68
2024/02/19 10:28:55;;;;;;;0.63;0.63;;;;;;;8.93;90.75;97921.63;4980709;28;20144;-62
2024/02/19 10:31:21;;;;;;;0.77;0.77;;;;;;;8.67;91.09;97885.13;4981165;28;20049;-62
2024/02/19 10:33:48;;;;;;;0.70;0.70;;;;;;;8.87;89.43;97918.25;4981832;28;20109;-62
2024/02/19 10:36:19;;;;;;;0.80;0.80;;;;;;;8.95;89.74;97930.38;4982088;28;20057;-61
2024/02/19 10:38:46;;;;;;;0.70;0.70;;;;;;;8.71;90.88;97914.50;4981526;28;20500;-64
2024/02/19 10:41:13;;;;;;;0.70;0.70;;;;;;;8.89;90.50;97909.63;4965804;28;20050;-61
2024/02/19 10:43:41;;;;;;;0.70;0.70;;;;;;;9.06;89.30;97909.47;4982696;28;20094;-63
2024/02/19 10:46:08;;;;;;;0.80;0.80;;;;;;;8.65;89.40;97821.13;4983921;28;20058;-64
2024/02/19 10:48:35;;;;;;;0.80;0.80;;;;;;;9.08;89.82;97854.66;4983194;28;20050;-61
2024/02/19 10:51:05;;;;;;;0.77;0.77;;;;;;;9.28;87.98;97905.53;4980331;28;20106;-60
2024/02/19 10:53:32;;;;;;;0.70;0.70;;;;;;;9.58;87.84;97899.50;4982377;28;20461;-60
2024/02/19 10:56:19;;;;;;;0.70;0.70;;;;;;;9.68;86.87;97893.53;4986924;28;20086;-71
2024/02/19 10:58:53;;;;;;;0.80;0.80;;;;;;;9.61;87.25;97835.19;4974137;28;20053;-60
2024/02/19 11:01:23;;;;;;;0.80;0.80;;;;;;;9.98;86.42;97845.13;4985418;28;20720;-61
2024/02/19 11:03:51;;;;;;;0.80;0.80;;;;;;;10.13;83.80;97849.19;4981091;28;20053;-69
2024/02/19 11:06:22;;;;;;;0.80;0.80;;;;;;;10.41;81.73;97881.34;4991331;28;20130;-59
2024/02/19 11:08:53;;;;;;;0.80;0.80;;;;;;;10.46;80.91;97867.22;4981281;28;20149;-61
2024/02/19 11:11:22;;;;;;;0.90;0.90;;;;;;;10.51;80.75;97853.13;4975634;28;20109;-69
2024/02/19 11:13:49;;;;;;;0.82;0.82;;;;;;;10.38;79.17;97818.34;4973815;28;20061;-60
2024/02/19 11:16:17;;;;;;;0.88;0.88;;;;;;;10.80;79.19;97852.00;4975716;28;20051;-60
2024/02/19 11:18:44;;;;;;;0.90;0.90;;;;;;;10.90;79.01;97861.78;4967042;28;20059;-69
2024/02/19 11:21:12;;;;;;;0.80;0.80;;;;;;;10.78;79.38;97839.66;4977981;28;20043;-72
2024/02/19 11:23:38;;;;;;;0.90;0.90;;;;;;;10.22;78.51;97786.16;4963833;28;20058;-67
2024/02/19 11:26:05;;;;;;;0.80;0.80;;;;;;;10.73;78.85;97862.09;4967672;28;20461;-70
2024/02/19 11:28:33;;;;;;;0.80;0.80;;;;;;;9.24;78.34;97653.84;4974279;28;20078;-73
2024/02/19 11:31:04;;;;;;;0.82;0.82;;;;;;;10.10;78.68;97822.97;4971889;28;20054;-60
2024/02/19 11:33:31;;;;;;;0.90;0.90;;;;;;;9.81;79.18;97834.28;4996060;28;20159;-61
2024/02/19 11:35:58;;;;;;;0.80;0.80;;;;;;;10.19;80.20;97859.66;5000565;28;20052;-73
2024/02/19 11:38:29;;;;;;;0.80;0.80;;;;;;;9.23;84.95;97853.22;5000716;28;20061;-62
2024/02/19 11:40:57;;;;;;;0.73;0.73;;;;;;;8.95;88.36;97853.00;5000415;28;20050;-65